Time;durP1;ratioP1;P1;durP2;ratioP2;P2;SDS_P1;SDS_P2;PMS_P1;PMS_P2;Temp;Humidity;BMP_temperature;BMP_pressure;BME280_temperature;BME280_humidity;BME280_pressure;Samples;Min_cycle;Max_cycle;Signal;HPM_P1;HPM_P2
2022/08/29 00:00:11;;;;;;;4.60;1.50;;;;;;;;;;5112717;28;20027;-79
2022/08/29 00:02:38;;;;;;;6.30;1.65;;;;;;;;;;5112355;28;20044;-79
2022/08/29 00:05:05;;;;;;;2.58;1.30;;;;;;;;;;5112790;28;20073;-79
2022/08/29 00:07:31;;;;;;;5.35;1.60;;;;;;;;;;5112691;28;20024;-79
2022/08/29 00:09:57;;;;;;;4.43;1.25;;;;;;;;;;5112753;28;20145;-81
2022/08/29 00:12:23;;;;;;;4.22;1.80;;;;;;;;;;5112215;28;20027;-79
2022/08/29 00:14:49;;;;;;;5.30;1.90;;;;;;;;;;5112231;28;20034;-79
2022/08/29 00:17:15;;;;;;;7.57;1.80;;;;;;;;;;5112578;28;20108;-79
2022/08/29 00:19:41;;;;;;;4.65;1.80;;;;;;;;;;5112432;28;20397;-79
2022/08/29 00:22:07;;;;;;;3.72;1.50;;;;;;;;;;5112282;28;20477;-80
2022/08/29 00:24:33;;;;;;;9.15;1.70;;;;;;;;;;5094825;28;20024;-79
2022/08/29 00:27:00;;;;;;;8.02;1.90;;;;;;;;;;5092291;28;20020;-79
2022/08/29 00:29:26;;;;;;;5.18;1.70;;;;;;;;;;5095093;28;20073;-78
2022/08/29 00:31:52;;;;;;;4.20;1.60;;;;;;;;;;5095423;28;20036;-79
2022/08/29 00:34:18;;;;;;;4.85;1.98;;;;;;;;;;5096057;28;20024;-79
2022/08/29 00:36:44;;;;;;;5.72;2.00;;;;;;;;;;5095453;28;20447;-79
2022/08/29 00:39:10;;;;;;;3.83;1.80;;;;;;;;;;5095646;28;20111;-79
2022/08/29 00:41:36;;;;;;;4.50;1.40;;;;;;;;;;5095405;28;20043;-79
2022/08/29 00:44:03;;;;;;;3.13;1.88;;;;;;;;;;5095495;28;20024;-78
2022/08/29 00:46:42;;;;;;;6.75;1.90;;;;;;;;;;5095514;28;20051;-79
2022/08/29 00:49:11;;;;;;;5.90;2.00;;;;;;;;;;5095483;28;20016;-78
2022/08/29 00:51:38;;;;;;;4.53;1.80;;;;;;;;;;5077193;28;20087;-79
2022/08/29 00:54:06;;;;;;;6.32;1.92;;;;;;;;;;5095069;28;20028;-80
2022/08/29 00:56:34;;;;;;;5.18;1.90;;;;;;;;;;5095155;28;20063;-78
2022/08/29 00:59:03;;;;;;;8.70;1.98;;;;;;;;;;5095156;28;20012;-78
2022/08/29 01:01:29;;;;;;;6.32;2.13;;;;;;;;;;5094860;28;20040;-79
2022/08/29 01:03:55;;;;;;;8.63;2.25;;;;;;;;;;5095120;28;20032;-78
2022/08/29 01:06:21;;;;;;;7.75;1.85;;;;;;;;;;5095046;28;20028;-79
2022/08/29 01:08:47;;;;;;;6.95;1.65;;;;;;;;;;5094872;28;20112;-79
2022/08/29 01:14:00;;;;;;;4.32;2.17;;;;;;;;;;5133596;27;20087;-79
2022/08/29 01:16:27;;;;;;;5.75;1.90;;;;;;;;;;5135716;27;20357;-79
2022/08/29 01:18:56;;;;;;;5.72;2.83;;;;;;;;;;5117086;27;20370;-78
2022/08/29 01:21:34;;;;;;;5.18;1.90;;;;;;;;;;5135743;27;20019;-78
2022/08/29 01:24:03;;;;;;;3.90;2.08;;;;;;;;;;5135382;27;20019;-79
2022/08/29 01:26:29;;;;;;;5.03;2.10;;;;;;;;;;5117135;27;20019;-79
2022/08/29 01:28:55;;;;;;;6.32;1.90;;;;;;;;;;5135571;27;20094;-79
2022/08/29 01:31:23;;;;;;;3.60;2.03;;;;;;;;;;5117200;27;20034;-79
2022/08/29 01:33:55;;;;;;;4.43;2.08;;;;;;;;;;5135665;27;20310;-79
2022/08/29 01:36:49;;;;;;;5.18;2.05;;;;;;;;;;5135355;27;20027;-78
2022/08/29 01:39:15;;;;;;;6.90;2.20;;;;;;;;;;5132394;27;20423;-79
2022/08/29 01:41:42;;;;;;;4.80;2.22;;;;;;;;;;5134862;27;20389;-78
2022/08/29 01:44:10;;;;;;;8.02;1.80;;;;;;;;;;5135111;27;20049;-78
2022/08/29 01:46:37;;;;;;;5.85;1.90;;;;;;;;;;5111379;28;20120;-78
2022/08/29 01:49:04;;;;;;;5.57;2.05;;;;;;;;;;5114676;28;20058;-80
2022/08/29 01:51:31;;;;;;;5.82;2.08;;;;;;;;;;5114479;28;20122;-81
2022/08/29 01:53:57;;;;;;;9.07;2.80;;;;;;;;;;5114699;28;20061;-80
2022/08/29 01:56:25;;;;;;;5.22;2.33;;;;;;;;;;5114190;28;20445;-80
2022/08/29 01:58:52;;;;;;;5.38;1.95;;;;;;;;;;5114433;28;20357;-80
2022/08/29 02:01:20;;;;;;;7.28;2.40;;;;;;;;;;5114446;28;20039;-81
2022/08/29 02:03:46;;;;;;;4.10;2.22;;;;;;;;;;5095643;28;20026;-80
2022/08/29 02:06:12;;;;;;;5.13;1.90;;;;;;;;;;5114086;28;20022;-80
2022/08/29 02:08:39;;;;;;;4.40;2.40;;;;;;;;;;5113992;28;20065;-80
2022/08/29 02:11:08;;;;;;;5.45;2.53;;;;;;;;;;5114185;28;20098;-80
2022/08/29 02:13:35;;;;;;;8.40;2.80;;;;;;;;;;5113943;28;20016;-80
2022/08/29 02:16:01;;;;;;;5.95;2.78;;;;;;;;;;5113872;28;20023;-80
2022/08/29 02:18:27;;;;;;;6.10;2.40;;;;;;;;;;5113786;28;20019;-80
2022/08/29 02:20:53;;;;;;;8.82;2.80;;;;;;;;;;5095562;28;20033;-80
2022/08/29 02:23:19;;;;;;;5.40;2.50;;;;;;;;;;5106683;28;20016;-80
2022/08/29 02:25:46;;;;;;;6.03;2.30;;;;;;;;;;5093803;28;20497;-80
2022/08/29 02:28:14;;;;;;;4.55;2.15;;;;;;;;;;5093450;28;20103;-80
2022/08/29 02:30:42;;;;;;;7.88;2.03;;;;;;;;;;5093555;28;20028;-80
2022/08/29 02:33:08;;;;;;;2.47;1.60;;;;;;;;;;5093417;28;20347;-80
2022/08/29 02:35:35;;;;;;;5.60;2.20;;;;;;;;;;5093578;28;20036;-80
2022/08/29 02:38:01;;;;;;;8.82;2.20;;;;;;;;;;5093112;28;20058;-80
2022/08/29 02:40:27;;;;;;;5.43;2.80;;;;;;;;;;5093438;28;20020;-80
2022/08/29 02:42:54;;;;;;;5.40;2.50;;;;;;;;;;5093120;28;20046;-80
2022/08/29 02:45:21;;;;;;;6.50;2.50;;;;;;;;;;5093109;28;20024;-80
2022/08/29 02:47:47;;;;;;;5.25;2.38;;;;;;;;;;5092876;28;20028;-80
2022/08/29 02:50:13;;;;;;;4.97;2.30;;;;;;;;;;5093014;28;20103;-80
2022/08/29 02:52:40;;;;;;;6.40;2.20;;;;;;;;;;5093172;28;20051;-80
2022/08/29 02:55:07;;;;;;;6.63;2.50;;;;;;;;;;5093207;28;20020;-80
2022/08/29 02:57:33;;;;;;;6.00;2.22;;;;;;;;;;5092803;28;20036;-80
2022/08/29 02:59:59;;;;;;;6.13;2.28;;;;;;;;;;5092877;28;20442;-80
2022/08/29 03:02:25;;;;;;;3.80;1.80;;;;;;;;;;5092821;28;20040;-80
2022/08/29 03:04:51;;;;;;;6.38;2.60;;;;;;;;;;5093161;28;20016;-80
2022/08/29 03:07:17;;;;;;;5.03;2.20;;;;;;;;;;5092679;28;20099;-80
2022/08/29 03:09:43;;;;;;;3.67;2.03;;;;;;;;;;5092801;28;20134;-80
2022/08/29 03:12:09;;;;;;;4.53;2.17;;;;;;;;;;5074649;28;20020;-80
2022/08/29 03:14:36;;;;;;;5.68;2.30;;;;;;;;;;5074886;28;20109;-80
2022/08/29 03:17:02;;;;;;;3.80;2.05;;;;;;;;;;5092806;28;20035;-80
2022/08/29 03:19:28;;;;;;;4.10;2.00;;;;;;;;;;5074683;28;20024;-80
2022/08/29 03:21:54;;;;;;;7.80;2.72;;;;;;;;;;5074387;28;20428;-80
2022/08/29 03:24:20;;;;;;;4.28;2.00;;;;;;;;;;5093151;28;20047;-80
2022/08/29 03:26:46;;;;;;;5.03;2.22;;;;;;;;;;5092896;28;20039;-80
2022/08/29 03:29:12;;;;;;;3.20;2.30;;;;;;;;;;5092564;28;20031;-80
2022/08/29 03:31:38;;;;;;;4.72;2.40;;;;;;;;;;5092706;28;20024;-80
2022/08/29 03:34:05;;;;;;;5.90;2.55;;;;;;;;;;5092767;28;20040;-80
2022/08/29 03:36:32;;;;;;;4.35;2.00;;;;;;;;;;5092845;28;20028;-80
2022/08/29 03:38:58;;;;;;;3.33;2.03;;;;;;;;;;5092972;28;20537;-80
2022/08/29 03:41:28;;;;;;;4.30;2.05;;;;;;;;;;5092772;28;20028;-80
2022/08/29 03:43:55;;;;;;;5.07;2.30;;;;;;;;;;5092590;28;20442;-80
2022/08/29 03:46:22;;;;;;;5.43;2.20;;;;;;;;;;5092258;28;20020;-80
2022/08/29 03:48:48;;;;;;;3.58;2.15;;;;;;;;;;5110629;28;20019;-81
2022/08/29 03:51:15;;;;;;;3.80;2.50;;;;;;;;;;5133510;28;20090;-80
2022/08/29 03:53:41;;;;;;;6.95;2.47;;;;;;;;;;5127216;28;20413;-81
2022/08/29 03:56:08;;;;;;;7.57;2.40;;;;;;;;;;5124660;28;20376;-81
2022/08/29 03:58:34;;;;;;;8.95;2.60;;;;;;;;;;5133033;28;20024;-81
2022/08/29 04:01:00;;;;;;;8.52;2.42;;;;;;;;;;5133058;28;20129;-81
2022/08/29 04:03:26;;;;;;;5.25;2.30;;;;;;;;;;5128516;27;20073;-81
2022/08/29 04:05:53;;;;;;;6.70;2.28;;;;;;;;;;5116365;28;20027;-81
2022/08/29 04:08:19;;;;;;;6.75;2.08;;;;;;;;;;5116652;28;20024;-81
2022/08/29 04:10:45;;;;;;;5.93;3.00;;;;;;;;;;5116856;28;20149;-81
2022/08/29 04:13:11;;;;;;;3.80;2.40;;;;;;;;;;5116562;28;20023;-80
2022/08/29 04:15:39;;;;;;;3.95;2.45;;;;;;;;;;5116425;28;20020;-81
2022/08/29 04:18:06;;;;;;;4.63;2.40;;;;;;;;;;5103957;27;20023;-80
2022/08/29 04:20:33;;;;;;;7.20;2.70;;;;;;;;;;5136988;27;20042;-80
2022/08/29 04:22:59;;;;;;;5.55;2.50;;;;;;;;;;5121408;27;20020;-81
2022/08/29 04:25:26;;;;;;;6.75;2.50;;;;;;;;;;5095762;28;20020;-80
2022/08/29 04:27:53;;;;;;;5.20;2.17;;;;;;;;;;5113991;28;20482;-80
2022/08/29 04:30:21;;;;;;;4.97;2.38;;;;;;;;;;5116627;28;20024;-78
2022/08/29 04:32:47;;;;;;;6.20;2.65;;;;;;;;;;5116013;28;20095;-81
2022/08/29 04:35:13;;;;;;;3.95;2.28;;;;;;;;;;5118196;27;20039;-81
2022/08/29 04:37:40;;;;;;;6.07;2.42;;;;;;;;;;5136563;27;20121;-81
2022/08/29 04:40:07;;;;;;;4.85;2.30;;;;;;;;;;5136333;27;20038;-79
2022/08/29 04:42:35;;;;;;;8.45;2.35;;;;;;;;;;5117668;27;20019;-79
2022/08/29 04:45:01;;;;;;;8.18;3.08;;;;;;;;;;5097102;28;20477;-79
2022/08/29 04:47:27;;;;;;;10.20;4.80;;;;;;;;;;5132102;27;20053;-79
2022/08/29 04:49:55;;;;;;;5.78;2.88;;;;;;;;;;5097087;28;20380;-79
2022/08/29 04:52:21;;;;;;;5.15;2.42;;;;;;;;;;5115616;28;20034;-79
2022/08/29 04:54:47;;;;;;;9.40;2.75;;;;;;;;;;5097308;28;20557;-79
2022/08/29 04:57:13;;;;;;;4.22;2.53;;;;;;;;;;5115586;27;20024;-79
2022/08/29 04:59:39;;;;;;;9.57;2.78;;;;;;;;;;5115931;28;20108;-79
2022/08/29 05:02:05;;;;;;;10.23;2.42;;;;;;;;;;5113853;28;20077;-79
2022/08/29 05:04:31;;;;;;;8.85;3.50;;;;;;;;;;5094658;28;20012;-79
2022/08/29 05:06:57;;;;;;;8.32;2.90;;;;;;;;;;5076490;28;20044;-81
2022/08/29 05:09:23;;;;;;;5.50;2.85;;;;;;;;;;5094599;28;20024;-79
2022/08/29 05:11:50;;;;;;;4.88;2.78;;;;;;;;;;5093562;28;20161;-79
2022/08/29 05:14:16;;;;;;;4.60;2.78;;;;;;;;;;5059413;28;20029;-79
2022/08/29 05:16:42;;;;;;;4.82;2.65;;;;;;;;;;5114421;28;20457;-78
2022/08/29 05:19:08;;;;;;;7.13;3.50;;;;;;;;;;5096560;28;20063;-78
2022/08/29 05:21:35;;;;;;;7.82;2.85;;;;;;;;;;5096552;28;20042;-78
2022/08/29 05:24:04;;;;;;;6.35;2.90;;;;;;;;;;5114719;28;20318;-78
2022/08/29 05:26:31;;;;;;;15.40;3.47;;;;;;;;;;5089236;28;20078;-78
2022/08/29 05:28:57;;;;;;;6.40;3.30;;;;;;;;;;5094646;28;20084;-79
2022/08/29 05:31:24;;;;;;;6.85;3.00;;;;;;;;;;5094516;28;20024;-77
2022/08/29 05:33:50;;;;;;;4.45;2.97;;;;;;;;;;5081546;28;20017;-80
2022/08/29 05:36:16;;;;;;;14.77;3.70;;;;;;;;;;5073920;28;20091;-80
2022/08/29 05:38:45;;;;;;;7.15;3.53;;;;;;;;;;5094039;28;20501;-80
2022/08/29 05:41:11;;;;;;;6.35;3.13;;;;;;;;;;5075794;28;20489;-79
2022/08/29 05:43:38;;;;;;;6.82;3.55;;;;;;;;;;5075942;28;20068;-79
2022/08/29 05:46:05;;;;;;;7.97;3.53;;;;;;;;;;5074974;28;20499;-79
2022/08/29 05:48:33;;;;;;;7.03;3.15;;;;;;;;;;5059847;28;20050;-79
2022/08/29 05:50:59;;;;;;;9.85;3.35;;;;;;;;;;5076317;28;20024;-79
2022/08/29 05:53:26;;;;;;;10.80;4.30;;;;;;;;;;5114763;28;20042;-80
2022/08/29 05:55:52;;;;;;;10.80;3.78;;;;;;;;;;5080676;28;20020;-79
2022/08/29 05:58:18;;;;;;;14.52;4.45;;;;;;;;;;5093502;28;20028;-80
2022/08/29 06:00:46;;;;;;;12.02;3.97;;;;;;;;;;5075556;28;20110;-80
2022/08/29 06:03:12;;;;;;;13.57;4.07;;;;;;;;;;5095622;28;20046;-79
2022/08/29 06:05:39;;;;;;;9.63;3.95;;;;;;;;;;5095500;28;20019;-79
2022/08/29 06:08:05;;;;;;;12.80;4.05;;;;;;;;;;5095465;28;20082;-79
2022/08/29 06:10:31;;;;;;;18.30;3.85;;;;;;;;;;5095643;28;20140;-79
2022/08/29 06:12:57;;;;;;;12.60;4.18;;;;;;;;;;5113667;28;20016;-79
2022/08/29 06:15:27;;;;;;;12.05;3.63;;;;;;;;;;5095648;28;20019;-81
2022/08/29 06:17:53;;;;;;;54.60;5.60;;;;;;;;;;5095572;28;20028;-80
2022/08/29 06:20:19;;;;;;;11.90;4.05;;;;;;;;;;5114102;28;20053;-78
2022/08/29 06:22:45;;;;;;;14.02;3.85;;;;;;;;;;5093787;28;20061;-78
2022/08/29 06:25:11;;;;;;;18.33;4.13;;;;;;;;;;5094209;28;20028;-78
2022/08/29 06:27:37;;;;;;;19.60;3.88;;;;;;;;;;5093585;28;20489;-78
2022/08/29 06:30:03;;;;;;;17.33;4.30;;;;;;;;;;5093453;28;20103;-77
2022/08/29 06:32:30;;;;;;;12.30;3.83;;;;;;;;;;5093388;28;20032;-79
2022/08/29 06:34:56;;;;;;;15.73;3.95;;;;;;;;;;5106216;28;20020;-77
2022/08/29 06:37:22;;;;;;;17.42;3.67;;;;;;;;;;5095086;28;20035;-78
2022/08/29 06:39:48;;;;;;;12.55;3.55;;;;;;;;;;5113536;28;20012;-77
2022/08/29 06:42:17;;;;;;;10.93;3.47;;;;;;;;;;5113802;28;20065;-78
2022/08/29 06:44:43;;;;;;;15.07;3.42;;;;;;;;;;5113349;28;20026;-78
2022/08/29 06:47:09;;;;;;;9.30;3.88;;;;;;;;;;5113362;28;20015;-77
2022/08/29 06:49:35;;;;;;;8.73;3.25;;;;;;;;;;5113435;28;20027;-78
2022/08/29 06:52:01;;;;;;;11.98;3.88;;;;;;;;;;5113421;28;20019;-77
2022/08/29 06:54:28;;;;;;;12.70;3.42;;;;;;;;;;5095082;28;20031;-77
2022/08/29 06:56:54;;;;;;;13.15;4.60;;;;;;;;;;5113091;28;20054;-78
2022/08/29 06:59:20;;;;;;;10.80;4.28;;;;;;;;;;5098134;27;20552;-78
2022/08/29 07:01:47;;;;;;;13.30;3.75;;;;;;;;;;5123843;27;20032;-78
2022/08/29 07:04:13;;;;;;;12.50;4.03;;;;;;;;;;5108286;27;20053;-79
2022/08/29 07:06:40;;;;;;;17.55;4.47;;;;;;;;;;5106909;28;20032;-78
2022/08/29 07:09:06;;;;;;;14.32;4.85;;;;;;;;;;5100403;28;20068;-79
2022/08/29 07:11:33;;;;;;;11.63;4.55;;;;;;;;;;5107438;28;20046;-78
2022/08/29 07:14:00;;;;;;;11.63;4.40;;;;;;;;;;5098569;28;20319;-79
2022/08/29 07:16:27;;;;;;;16.27;4.50;;;;;;;;;;5108441;27;20034;-78
2022/08/29 07:18:53;;;;;;;14.52;4.95;;;;;;;;;;5103049;28;20513;-78
2022/08/29 07:21:21;;;;;;;18.73;5.43;;;;;;;;;;5112684;28;20015;-78
2022/08/29 07:23:47;;;;;;;15.48;3.83;;;;;;;;;;5112715;28;20022;-78
2022/08/29 07:26:15;;;;;;;22.85;4.70;;;;;;;;;;5112743;28;20358;-79
2022/08/29 07:28:41;;;;;;;25.55;3.65;;;;;;;;;;5112359;28;20035;-78
2022/08/29 07:31:07;;;;;;;12.05;3.95;;;;;;;;;;5108829;28;20024;-79
2022/08/29 07:33:33;;;;;;;10.23;3.63;;;;;;;;;;5086538;28;20043;-78
2022/08/29 07:36:00;;;;;;;11.93;3.83;;;;;;;;;;5107423;28;20103;-77
2022/08/29 07:38:29;;;;;;;12.50;3.20;;;;;;;;;;5086107;28;20023;-78
2022/08/29 07:41:03;;;;;;;10.45;3.10;;;;;;;;;;5124759;27;20023;-78
2022/08/29 07:43:29;;;;;;;17.00;3.58;;;;;;;;;;5137038;27;20035;-78
2022/08/29 07:45:56;;;;;;;16.80;3.85;;;;;;;;;;5130428;27;20064;-78
2022/08/29 07:48:22;;;;;;;8.00;3.35;;;;;;;;;;5116669;28;20028;-78
2022/08/29 07:50:49;;;;;;;12.07;3.60;;;;;;;;;;5098234;28;20024;-78
2022/08/29 07:53:15;;;;;;;9.63;3.17;;;;;;;;;;5116794;28;20030;-78
2022/08/29 07:55:41;;;;;;;13.63;3.20;;;;;;;;;;5116816;28;20492;-78
2022/08/29 07:58:07;;;;;;;13.43;3.40;;;;;;;;;;5116604;28;20464;-78
2022/08/29 08:00:34;;;;;;;10.27;3.65;;;;;;;;;;5116169;28;20031;-78
2022/08/29 08:03:00;;;;;;;12.48;3.75;;;;;;;;;;5097464;28;20151;-78
2022/08/29 08:05:26;;;;;;;13.82;3.47;;;;;;;;;;5117696;28;20107;-78
2022/08/29 08:07:52;;;;;;;13.45;3.42;;;;;;;;;;5100959;28;20035;-78
2022/08/29 08:10:19;;;;;;;6.72;2.88;;;;;;;;;;5119352;28;20401;-78
2022/08/29 08:12:50;;;;;;;10.15;3.15;;;;;;;;;;5107519;28;20020;-78
2022/08/29 08:15:16;;;;;;;10.45;3.60;;;;;;;;;;5079280;28;20432;-78
2022/08/29 08:17:42;;;;;;;12.40;3.65;;;;;;;;;;5097718;28;20039;-78
2022/08/29 08:20:09;;;;;;;10.50;3.70;;;;;;;;;;5116028;28;20023;-78
2022/08/29 08:22:35;;;;;;;13.43;3.83;;;;;;;;;;5116287;28;20023;-78
2022/08/29 08:25:02;;;;;;;8.75;3.63;;;;;;;;;;5116178;28;20016;-78
2022/08/29 08:27:28;;;;;;;9.48;3.60;;;;;;;;;;5097550;28;20059;-78
2022/08/29 08:29:54;;;;;;;11.77;3.70;;;;;;;;;;5097577;28;20481;-78
2022/08/29 08:32:20;;;;;;;12.40;4.13;;;;;;;;;;5115690;28;20027;-78
2022/08/29 08:34:46;;;;;;;9.40;3.83;;;;;;;;;;5097741;28;20059;-78
2022/08/29 08:37:12;;;;;;;11.20;3.63;;;;;;;;;;5115689;28;20031;-78
2022/08/29 08:39:39;;;;;;;11.02;3.50;;;;;;;;;;5097488;28;20503;-78
2022/08/29 08:42:15;;;;;;;7.15;3.22;;;;;;;;;;5097288;28;20028;-78
2022/08/29 08:44:51;;;;;;;14.20;4.03;;;;;;;;;;5115669;28;20020;-78
2022/08/29 08:47:23;;;;;;;7.78;3.33;;;;;;;;;;5115167;27;20027;-77
2022/08/29 08:49:53;;;;;;;13.75;3.50;;;;;;;;;;5114949;28;20035;-78
2022/08/29 08:52:27;;;;;;;6.53;3.13;;;;;;;;;;5093460;27;20032;-78
2022/08/29 08:55:00;;;;;;;12.88;3.45;;;;;;;;;;5088948;28;20052;-78
2022/08/29 08:57:31;;;;;;;14.52;3.38;;;;;;;;;;5104779;27;20023;-78
2022/08/29 08:59:58;;;;;;;4.80;2.92;;;;;;;;;;5093515;28;20126;-78
2022/08/29 09:02:53;;;;;;;11.35;3.35;;;;;;;;;;5108001;27;20048;-77
2022/08/29 09:05:34;;;;;;;10.68;3.20;;;;;;;;;;5104397;28;20036;-79
2022/08/29 09:08:07;;;;;;;9.52;2.45;;;;;;;;;;5107119;28;20102;-79
2022/08/29 09:10:33;;;;;;;7.32;2.20;;;;;;;;;;5091584;28;20019;-79
2022/08/29 09:13:32;;;;;;;8.18;2.20;;;;;;;;;;5110788;28;20492;-79
2022/08/29 09:15:59;;;;;;;9.07;2.63;;;;;;;;;;5071551;28;20048;-79
2022/08/29 09:18:31;;;;;;;11.25;2.60;;;;;;;;;;5109769;28;20027;-79
2022/08/29 09:20:58;;;;;;;6.50;2.50;;;;;;;;;;5101318;28;20012;-79
2022/08/29 09:23:39;;;;;;;6.28;1.88;;;;;;;;;;5097106;28;20035;-78
2022/08/29 09:26:06;;;;;;;7.15;2.20;;;;;;;;;;5096713;28;20106;-78
2022/08/29 09:28:32;;;;;;;9.55;2.92;;;;;;;;;;5096532;28;20084;-78
2022/08/29 09:31:17;;;;;;;8.05;2.65;;;;;;;;;;5115577;28;20121;-78
2022/08/29 09:33:45;;;;;;;11.02;4.50;;;;;;;;;;5115281;28;20026;-78
2022/08/29 09:36:12;;;;;;;8.55;2.47;;;;;;;;;;5115205;28;20045;-78
2022/08/29 09:38:38;;;;;;;8.73;2.20;;;;;;;;;;5115215;28;20455;-78
2022/08/29 09:41:06;;;;;;;10.40;2.67;;;;;;;;;;5096690;28;20119;-80
2022/08/29 09:43:38;;;;;;;4.93;2.38;;;;;;;;;;5114884;28;20058;-78
2022/08/29 09:46:10;;;;;;;8.40;2.25;;;;;;;;;;5115188;28;20020;-77
2022/08/29 09:48:38;;;;;;;5.63;1.75;;;;;;;;;;5114704;28;20354;-78
2022/08/29 09:51:23;;;;;;;9.00;1.50;;;;;;;;;;5114760;28;20027;-78
2022/08/29 09:53:50;;;;;;;4.00;1.80;;;;;;;;;;5115224;28;20020;-78
2022/08/29 09:56:24;;;;;;;4.65;1.40;;;;;;;;;;5115382;28;20112;-77
2022/08/29 09:59:01;;;;;;;15.45;1.75;;;;;;;;;;5115126;28;20072;-78
2022/08/29 10:01:28;;;;;;;4.63;1.90;;;;;;;;;;5113903;28;20036;-80
2022/08/29 10:03:59;;;;;;;6.47;2.10;;;;;;;;;;5114866;28;20454;-80
2022/08/29 10:06:27;;;;;;;6.93;1.83;;;;;;;;;;5096391;28;20117;-79
2022/08/29 10:08:56;;;;;;;5.95;1.50;;;;;;;;;;5096311;28;20462;-79
2022/08/29 10:11:31;;;;;;;9.25;1.90;;;;;;;;;;5114594;28;20488;-79
2022/08/29 10:14:00;;;;;;;5.88;1.92;;;;;;;;;;5113731;27;20020;-79
2022/08/29 10:16:34;;;;;;;7.70;2.28;;;;;;;;;;5116325;27;20023;-79
2022/08/29 10:19:01;;;;;;;4.20;1.33;;;;;;;;;;5134855;27;20018;-78
2022/08/29 10:21:30;;;;;;;5.70;1.90;;;;;;;;;;5116462;27;20431;-81
2022/08/29 10:24:06;;;;;;;8.30;1.90;;;;;;;;;;5132650;27;20072;-80
2022/08/29 10:26:41;;;;;;;4.95;1.73;;;;;;;;;;5105498;28;20016;-80
2022/08/29 10:29:16;;;;;;;5.28;2.03;;;;;;;;;;5113310;28;20125;-80
2022/08/29 10:31:50;;;;;;;4.80;1.52;;;;;;;;;;5113865;28;20026;-80
2022/08/29 10:34:36;;;;;;;7.30;1.75;;;;;;;;;;5094897;27;20027;-79
2022/08/29 10:37:16;;;;;;;6.53;2.17;;;;;;;;;;5102809;27;20461;-79
2022/08/29 10:39:42;;;;;;;10.38;1.80;;;;;;;;;;5111983;28;20027;-79
2022/08/29 10:42:11;;;;;;;4.70;1.58;;;;;;;;;;5116909;27;20020;-79
2022/08/29 10:44:56;;;;;;;4.05;1.58;;;;;;;;;;5116849;27;20058;-79
2022/08/29 10:47:45;;;;;;;6.38;1.65;;;;;;;;;;5119971;27;20031;-79
2022/08/29 10:50:14;;;;;;;7.43;1.70;;;;;;;;;;5112464;27;20058;-79
2022/08/29 10:52:40;;;;;;;9.05;1.60;;;;;;;;;;5113675;28;20170;-80
2022/08/29 10:55:21;;;;;;;5.43;2.10;;;;;;;;;;5094693;28;20028;-80
2022/08/29 10:58:08;;;;;;;5.97;1.63;;;;;;;;;;5093089;28;20107;-80
2022/08/29 11:00:39;;;;;;;7.97;1.77;;;;;;;;;;5093610;28;20559;-79
2022/08/29 11:03:18;;;;;;;2.85;1.30;;;;;;;;;;5097605;28;20382;-79
2022/08/29 11:05:50;;;;;;;5.53;1.60;;;;;;;;;;5095463;28;20028;-80
2022/08/29 11:08:25;;;;;;;4.88;1.33;;;;;;;;;;5112066;27;20117;-79
2022/08/29 11:10:52;;;;;;;5.35;1.70;;;;;;;;;;5107552;28;20108;-80
2022/08/29 11:13:23;;;;;;;13.82;2.03;;;;;;;;;;5094533;28;20023;-79
2022/08/29 11:16:08;;;;;;;1.98;1.00;;;;;;;;;;5095490;28;20115;-79
2022/08/29 11:18:53;;;;;;;3.25;1.33;;;;;;;;;;5113388;28;20028;-79
2022/08/29 11:21:41;;;;;;;3.05;1.30;;;;;;;;;;5094149;28;20016;-79
2022/08/29 11:24:09;;;;;;;3.70;1.27;;;;;;;;;;5113909;28;20023;-79
2022/08/29 11:26:44;;;;;;;6.80;1.58;;;;;;;;;;5113117;28;20015;-80
2022/08/29 11:29:29;;;;;;;5.20;2.45;;;;;;;;;;5093513;28;20074;-80
2022/08/29 11:32:10;;;;;;;4.60;1.50;;;;;;;;;;5113235;28;20016;-79
2022/08/29 11:34:39;;;;;;;4.07;1.50;;;;;;;;;;5108256;28;20027;-79
2022/08/29 11:37:24;;;;;;;6.32;1.60;;;;;;;;;;5107419;28;20039;-79
2022/08/29 11:40:09;;;;;;;3.83;1.70;;;;;;;;;;5105027;28;20027;-79
2022/08/29 11:42:38;;;;;;;8.57;1.58;;;;;;;;;;5096552;28;20016;-79
2022/08/29 11:45:06;;;;;;;5.03;1.60;;;;;;;;;;5113369;28;20027;-79
2022/08/29 11:47:33;;;;;;;5.10;1.50;;;;;;;;;;5112922;28;20019;-79
2022/08/29 11:50:18;;;;;;;4.88;1.60;;;;;;;;;;5112574;28;20023;-80
2022/08/29 11:52:55;;;;;;;6.60;1.63;;;;;;;;;;5102597;28;20019;-79
2022/08/29 11:55:22;;;;;;;5.53;1.55;;;;;;;;;;5094070;28;20098;-80
2022/08/29 11:57:50;;;;;;;6.03;1.42;;;;;;;;;;5112732;28;20051;-79
2022/08/29 12:00:24;;;;;;;5.82;1.77;;;;;;;;;;5112776;28;20020;-79
2022/08/29 12:02:50;;;;;;;5.40;1.55;;;;;;;;;;5110003;28;20066;-79
2022/08/29 12:05:16;;;;;;;4.03;1.40;;;;;;;;;;5094935;28;20055;-79
2022/08/29 12:07:48;;;;;;;5.95;1.58;;;;;;;;;;5093772;28;20034;-79
2022/08/29 12:10:22;;;;;;;3.28;1.60;;;;;;;;;;5108538;28;20023;-77
2022/08/29 12:12:50;;;;;;;7.68;1.80;;;;;;;;;;5091173;28;20016;-78
2022/08/29 12:15:31;;;;;;;5.78;1.70;;;;;;;;;;5093245;28;20389;-77
2022/08/29 12:18:01;;;;;;;5.22;1.70;;;;;;;;;;5096724;28;20020;-77
2022/08/29 12:20:30;;;;;;;4.47;1.42;;;;;;;;;;5090825;28;20024;-77
2022/08/29 12:23:05;;;;;;;4.03;1.50;;;;;;;;;;5093461;28;20326;-77
2022/08/29 12:25:44;;;;;;;4.40;1.55;;;;;;;;;;5115038;28;20034;-77
2022/08/29 12:28:16;;;;;;;5.07;1.60;;;;;;;;;;5116004;28;20030;-77
2022/08/29 12:30:49;;;;;;;6.15;1.40;;;;;;;;;;5115628;28;20069;-77
2022/08/29 12:33:35;;;;;;;3.80;1.40;;;;;;;;;;5115512;28;20024;-77
2022/08/29 12:36:01;;;;;;;4.70;1.27;;;;;;;;;;5104591;27;20038;-78
2022/08/29 12:38:33;;;;;;;2.75;1.30;;;;;;;;;;5103597;28;20027;-77
2022/08/29 12:41:20;;;;;;;5.13;1.73;;;;;;;;;;5111093;28;20036;-78
2022/08/29 12:43:46;;;;;;;10.55;1.92;;;;;;;;;;5109520;28;20490;-76
2022/08/29 12:46:31;;;;;;;4.93;1.60;;;;;;;;;;5112701;28;20054;-77
2022/08/29 12:49:06;;;;;;;5.43;1.48;;;;;;;;;;5110773;28;20426;-77
2022/08/29 12:51:38;;;;;;;10.95;2.15;;;;;;;;;;5113173;28;20047;-77
2022/08/29 12:54:04;;;;;;;6.53;1.60;;;;;;;;;;5093813;28;20038;-77
2022/08/29 12:56:31;;;;;;;5.60;1.40;;;;;;;;;;5112890;27;20122;-77
2022/08/29 12:59:01;;;;;;;4.05;1.50;;;;;;;;;;5112456;28;20410;-77
2022/08/29 13:01:31;;;;;;;4.07;1.55;;;;;;;;;;5112508;28;20039;-76
2022/08/29 13:03:59;;;;;;;2.63;1.20;;;;;;;;;;5110544;28;20050;-77
2022/08/29 13:06:26;;;;;;;2.67;1.55;;;;;;;;;;5108550;28;20020;-76
2022/08/29 13:08:52;;;;;;;3.72;1.23;;;;;;;;;;5105427;28;20032;-77
2022/08/29 13:11:23;;;;;;;3.28;1.30;;;;;;;;;;5095789;28;20092;-77
2022/08/29 13:13:49;;;;;;;5.70;1.52;;;;;;;;;;5101444;28;20023;-77
2022/08/29 13:16:23;;;;;;;8.50;1.40;;;;;;;;;;5095816;28;20080;-76
2022/08/29 13:18:49;;;;;;;7.07;1.48;;;;;;;;;;5114244;28;20466;-77
2022/08/29 13:21:22;;;;;;;4.80;1.27;;;;;;;;;;5094379;28;20542;-77
2022/08/29 13:23:57;;;;;;;3.17;1.30;;;;;;;;;;5086929;28;20020;-77
2022/08/29 13:26:26;;;;;;;5.30;1.65;;;;;;;;;;5093747;28;20016;-77
2022/08/29 13:29:09;;;;;;;3.75;1.20;;;;;;;;;;5109661;28;20031;-77
2022/08/29 13:31:36;;;;;;;6.05;1.23;;;;;;;;;;5099640;28;20020;-77
2022/08/29 13:34:05;;;;;;;3.72;1.40;;;;;;;;;;5094395;28;20035;-78
2022/08/29 13:36:36;;;;;;;5.13;1.20;;;;;;;;;;5093336;28;20035;-77
2022/08/29 13:39:20;;;;;;;3.95;1.17;;;;;;;;;;5095398;28;20019;-77
2022/08/29 13:41:50;;;;;;;2.72;1.38;;;;;;;;;;5111520;28;20069;-77
2022/08/29 13:44:17;;;;;;;5.18;1.30;;;;;;;;;;5095057;28;20039;-77
2022/08/29 13:46:46;;;;;;;3.00;1.17;;;;;;;;;;5094650;28;20171;-79
2022/08/29 13:49:17;;;;;;;4.53;1.33;;;;;;;;;;5096169;28;20028;-81
2022/08/29 13:51:43;;;;;;;5.78;1.50;;;;;;;;;;5114004;28;20012;-78
2022/08/29 13:54:09;;;;;;;5.95;1.65;;;;;;;;;;5114003;28;20411;-83
2022/08/29 13:56:35;;;;;;;4.25;1.70;;;;;;;;;;5114379;28;20016;-85
2022/08/29 13:59:02;;;;;;;6.72;1.77;;;;;;;;;;5114106;28;20027;-84
2022/08/29 14:01:28;;;;;;;3.70;1.20;;;;;;;;;;5113946;28;20094;-84
2022/08/29 14:03:55;;;;;;;3.88;1.38;;;;;;;;;;5102593;27;20430;-84
2022/08/29 14:06:22;;;;;;;4.10;1.30;;;;;;;;;;5112589;27;20012;-84
2022/08/29 14:08:49;;;;;;;4.45;1.20;;;;;;;;;;5110711;28;20047;-84
2022/08/29 14:11:16;;;;;;;2.78;1.38;;;;;;;;;;5115004;27;20031;-83
2022/08/29 14:13:42;;;;;;;3.45;1.40;;;;;;;;;;5109625;28;20522;-83
2022/08/29 14:16:11;;;;;;;5.18;1.52;;;;;;;;;;5110939;27;20084;-84
2022/08/29 14:18:37;;;;;;;3.88;1.20;;;;;;;;;;5103001;27;20469;-84
2022/08/29 14:21:03;;;;;;;5.47;1.50;;;;;;;;;;5099465;28;20460;-84
2022/08/29 14:23:29;;;;;;;3.75;1.42;;;;;;;;;;5113917;28;20019;-83
2022/08/29 14:25:56;;;;;;;4.85;1.42;;;;;;;;;;5113733;28;20024;-83
2022/08/29 14:28:22;;;;;;;6.50;1.38;;;;;;;;;;5101131;28;20082;-84
2022/08/29 14:30:48;;;;;;;6.65;1.38;;;;;;;;;;5113767;28;20373;-83
2022/08/29 14:33:14;;;;;;;6.82;1.45;;;;;;;;;;5113025;28;20031;-83
2022/08/29 14:35:40;;;;;;;2.95;1.30;;;;;;;;;;5104618;28;20423;-83
2022/08/29 14:38:06;;;;;;;2.45;1.25;;;;;;;;;;5109649;27;20106;-84
2022/08/29 14:40:32;;;;;;;2.33;1.13;;;;;;;;;;5107260;28;20025;-84
2022/08/29 14:42:59;;;;;;;2.00;1.38;;;;;;;;;;5106476;28;20712;-85
2022/08/29 14:45:27;;;;;;;4.70;1.58;;;;;;;;;;5106044;28;20492;-85
2022/08/29 14:47:53;;;;;;;3.58;1.50;;;;;;;;;;5105973;28;20465;-85
2022/08/29 14:50:19;;;;;;;4.80;1.40;;;;;;;;;;5108438;27;20034;-84
2022/08/29 14:52:45;;;;;;;6.07;1.67;;;;;;;;;;5100165;28;20093;-85